createdAt,value
2018-04-25T00:02:10.157Z,100080.94
2018-04-25T00:04:36.813Z,100081.80
2018-04-25T00:07:03.507Z,100082.81
2018-04-25T00:09:30.120Z,100089.55
2018-04-25T00:12:00.073Z,100089.28
2018-04-25T00:14:26.582Z,100085.58
2018-04-25T00:16:53.236Z,100094.80
2018-04-25T00:19:19.991Z,100094.44
2018-04-25T00:21:46.871Z,100093.91
2018-04-25T00:24:13.541Z,100097.61
2018-04-25T00:26:40.045Z,100099.98
2018-04-25T00:29:06.681Z,100102.31
2018-04-25T00:31:37.278Z,100103.27
2018-04-25T00:34:04.014Z,100105.85
2018-04-25T00:36:30.659Z,100109.83
2018-04-25T00:38:57.348Z,100109.97
2018-04-25T00:41:25.158Z,100113.67
2018-04-25T00:43:51.769Z,100112.98
2018-04-25T00:46:18.369Z,100105.32
2018-04-25T00:48:44.981Z,100104.75
2018-04-25T00:51:15.143Z,100106.39
2018-04-25T00:53:42.481Z,100105.46
2018-04-25T00:56:09.127Z,100103.71
2018-04-25T00:58:35.720Z,100098.20
2018-04-25T01:01:03.244Z,100089.02
2018-04-25T01:03:29.853Z,100087.16
2018-04-25T01:05:56.559Z,100089.39
2018-04-25T01:08:23.192Z,100082.95
2018-04-25T01:10:49.905Z,100085.00
2018-04-25T01:13:16.573Z,100080.25
2018-04-25T01:15:43.129Z,100074.48
2018-04-25T01:18:09.876Z,100078.30
2018-04-25T01:20:36.534Z,100072.28
2018-04-25T01:23:07.363Z,100074.00
2018-04-25T01:25:34.018Z,100067.06
2018-04-25T01:28:12.285Z,100070.29
2018-04-25T01:33:43.325Z,100069.18
2018-04-25T01:39:06.822Z,100066.95
2018-04-25T01:41:33.519Z,100070.08
2018-04-25T01:44:00.095Z,100059.09
2018-04-25T01:46:27.733Z,100066.82
2018-04-25T01:52:02.015Z,100064.33
2018-04-25T01:54:46.584Z,100061.00
2018-04-25T01:57:31.267Z,100071.30
2018-04-25T02:00:16.297Z,100073.25
2018-04-25T02:02:52.473Z,100074.50
2018-04-25T02:05:19.050Z,100078.80
2018-04-25T02:07:45.744Z,100077.97
2018-04-25T02:10:12.421Z,100081.02
2018-04-25T02:12:40.085Z,100088.20
2018-04-25T02:15:06.770Z,100089.52
2018-04-25T02:17:33.450Z,100094.06
2018-04-25T02:20:00.150Z,100091.55
2018-04-25T02:22:30.707Z,100091.30
2018-04-25T02:24:57.366Z,100091.33
2018-04-25T02:27:24.045Z,100085.16
2018-04-25T02:29:50.690Z,100076.72
2018-04-25T02:32:20.771Z,100070.43
2018-04-25T02:34:47.430Z,100066.69
2018-04-25T02:37:14.205Z,100072.42
2018-04-25T02:39:40.884Z,100069.55
2018-04-25T02:42:11.716Z,100067.95
2018-04-25T02:44:38.300Z,100068.72
2018-04-25T02:47:04.935Z,100078.77
2018-04-25T02:49:31.446Z,100072.09
2018-04-25T02:51:58.109Z,100064.03
2018-04-25T02:54:24.698Z,100064.10
2018-04-25T02:56:51.345Z,100061.25
2018-04-25T02:59:18.106Z,100061.19
2018-04-25T03:01:45.962Z,100060.68
2018-04-25T03:04:12.724Z,100063.00
2018-04-25T03:06:39.292Z,100072.32
2018-04-25T03:09:05.912Z,100078.64
2018-04-25T03:11:42.628Z,100079.71
2018-04-25T03:14:09.370Z,100084.19
2018-04-25T03:16:36.152Z,100082.56
2018-04-25T03:19:02.744Z,100089.43
2018-04-25T03:21:33.310Z,100085.16
2018-04-25T03:23:59.933Z,100086.29
2018-04-25T03:26:26.750Z,100090.23
2018-04-25T03:28:53.482Z,100091.59
2018-04-25T03:31:21.279Z,100092.64
2018-04-25T03:33:48.018Z,100088.66
2018-04-25T03:36:14.665Z,100086.59
2018-04-25T03:38:41.368Z,100081.86
2018-04-25T03:41:11.167Z,100079.08
2018-04-25T03:43:37.902Z,100087.77
2018-04-25T03:46:04.538Z,100080.05
2018-04-25T03:48:31.109Z,100087.07
2018-04-25T03:50:58.939Z,100091.79
2018-04-25T03:53:25.642Z,100094.09
2018-04-25T03:55:52.213Z,100095.69
2018-04-25T03:58:18.899Z,100099.17
2018-04-25T04:00:49.133Z,100109.44
2018-04-25T04:03:15.863Z,100106.22
2018-04-25T04:05:42.543Z,100111.13
2018-04-25T04:08:09.314Z,100111.00
2018-04-25T04:10:39.706Z,100105.85
2018-04-25T04:13:06.498Z,100114.91
2018-04-25T04:15:32.960Z,100113.02
2018-04-25T04:17:59.674Z,100117.45
2018-04-25T04:20:26.401Z,100126.14
2018-04-25T04:22:53.114Z,100126.09
2018-04-25T04:25:19.755Z,100127.31
2018-04-25T04:27:46.523Z,100126.25
2018-04-25T04:30:13.266Z,100126.09
2018-04-25T04:32:45.114Z,100129.45
2018-04-25T04:35:11.828Z,100126.86
2018-04-25T04:37:38.613Z,100124.02
2018-04-25T04:40:05.273Z,100118.81
2018-04-25T04:42:38.069Z,100122.77
2018-04-25T04:45:04.828Z,100120.56
2018-04-25T04:47:31.488Z,100124.31
2018-04-25T04:49:58.299Z,100129.30
2018-04-25T04:52:28.452Z,100125.61
2018-04-25T04:54:55.053Z,100129.28
2018-04-25T04:57:21.823Z,100135.84
2018-04-25T04:59:48.691Z,100135.41
2018-04-25T05:02:15.459Z,100135.98
2018-04-25T05:04:42.223Z,100139.90
2018-04-25T05:07:11.904Z,100147.23
2018-04-25T05:09:38.600Z,100148.87
2018-04-25T05:12:08.509Z,100149.23
2018-04-25T05:14:35.453Z,100159.97
2018-04-25T05:17:01.966Z,100161.09
2018-04-25T05:19:28.602Z,100164.45
2018-04-25T05:21:55.367Z,100165.80
2018-04-25T05:24:22.052Z,100168.80
2018-04-25T05:26:48.723Z,100166.70
2018-04-25T05:29:15.262Z,100168.85
2018-04-25T05:31:47.767Z,100176.13
2018-04-25T05:34:14.384Z,100168.78
2018-04-25T05:36:41.049Z,100166.97
2018-04-25T05:39:07.731Z,100172.85
2018-04-25T05:41:37.727Z,100173.13
2018-04-25T05:44:04.362Z,100175.61
2018-04-25T05:46:31.027Z,100167.72
2018-04-25T05:48:57.552Z,100170.20
2018-04-25T05:51:25.582Z,100181.28
2018-04-25T05:53:52.202Z,100175.22
2018-04-25T05:56:18.890Z,100173.80
2018-04-25T05:58:45.537Z,100178.51
2018-04-25T06:01:20.006Z,100177.90
2018-04-25T06:03:46.615Z,100177.42
2018-04-25T06:06:13.332Z,100179.78
2018-04-25T06:08:39.980Z,100186.09
2018-04-25T06:11:12.413Z,100178.66
2018-04-25T06:13:39.062Z,100180.39
2018-04-25T06:16:05.678Z,100183.88
2018-04-25T06:18:32.349Z,100184.20
2018-04-25T06:21:04.290Z,100184.56
2018-04-25T06:23:30.924Z,100188.58
2018-04-25T06:25:57.579Z,100194.13
2018-04-25T06:28:24.259Z,100198.42
2018-04-25T06:30:54.418Z,100198.31
2018-04-25T06:33:21.190Z,100199.65
2018-04-25T06:35:47.846Z,100188.70
2018-04-25T06:38:14.558Z,100190.84
2018-04-25T06:40:42.426Z,100196.02
2018-04-25T06:43:09.063Z,100194.55
2018-04-25T06:45:35.583Z,100191.75
2018-04-25T06:48:02.279Z,100190.62
2018-04-25T06:50:41.361Z,100188.22
2018-04-25T06:53:07.995Z,100187.42
2018-04-25T06:55:34.641Z,100181.22
2018-04-25T06:58:01.423Z,100186.73
2018-04-25T07:00:46.148Z,100184.84
2018-04-25T07:03:12.938Z,100188.98
2018-04-25T07:05:39.508Z,100188.77
2018-04-25T07:08:06.286Z,100187.81
2018-04-25T07:10:51.322Z,100195.82
2018-04-25T07:13:17.836Z,100201.61
2018-04-25T07:15:44.544Z,100204.16
2018-04-25T07:18:11.257Z,100210.59
2018-04-25T07:20:44.538Z,100215.66
2018-04-25T07:23:11.251Z,100216.06
2018-04-25T07:25:37.974Z,100212.31
2018-04-25T07:28:04.621Z,100214.55
2018-04-25T07:30:32.172Z,100216.84
2018-04-25T07:32:58.728Z,100218.45
2018-04-25T07:35:25.458Z,100227.08
2018-04-25T07:37:52.089Z,100220.80
2018-04-25T07:40:18.776Z,100228.44
2018-04-25T07:42:45.466Z,100236.47
2018-04-25T07:45:12.112Z,100234.63
2018-04-25T07:47:38.802Z,100231.97
2018-04-25T07:50:08.781Z,100230.81
2018-04-25T07:52:35.355Z,100238.11
2018-04-25T07:55:01.930Z,100238.75
2018-04-25T07:57:28.637Z,100229.41
2018-04-25T07:59:55.260Z,100227.98
2018-04-25T08:02:21.846Z,100243.11
2018-04-25T08:04:48.539Z,100232.88
2018-04-25T08:07:15.267Z,100236.23
2018-04-25T08:09:42.004Z,100233.58
2018-04-25T08:12:21.722Z,100235.56
2018-04-25T08:15:00.325Z,100231.83
2018-04-25T08:17:38.834Z,100238.97
2018-04-25T08:20:17.546Z,100237.55
2018-04-25T08:22:44.053Z,100238.53
2018-04-25T08:25:10.676Z,100240.02
2018-04-25T08:27:37.203Z,100239.66
2018-04-25T08:30:07.048Z,100237.91
2018-04-25T08:32:33.681Z,100242.21
2018-04-25T08:35:00.327Z,100238.38
2018-04-25T08:37:26.990Z,100229.30
2018-04-25T08:39:53.646Z,100229.25
2018-04-25T08:42:20.192Z,100233.55
2018-04-25T08:44:46.981Z,100232.91
2018-04-25T08:47:13.438Z,100226.33
2018-04-25T08:49:40.123Z,100222.71
2018-04-25T08:52:06.784Z,100232.38
2018-04-25T08:54:33.517Z,100235.11
2018-04-25T08:57:00.062Z,100231.30
2018-04-25T08:59:26.666Z,100237.30
2018-04-25T09:01:59.130Z,100238.62
2018-04-25T09:04:25.863Z,100238.23
2018-04-25T09:06:55.749Z,100234.25
2018-04-25T09:09:22.314Z,100222.27
2018-04-25T09:11:49.285Z,100223.54
2018-04-25T09:14:15.905Z,100226.77
2018-04-25T09:16:42.571Z,100222.28
2018-04-25T09:19:09.233Z,100218.55
2018-04-25T09:21:36.060Z,100212.34
2018-04-25T09:24:02.794Z,100209.02
2018-04-25T09:26:29.414Z,100202.64
2018-04-25T09:28:56.042Z,100207.70
2018-04-25T09:31:26.621Z,100208.59
2018-04-25T09:33:53.277Z,100202.16
2018-04-25T09:36:19.999Z,100204.66
2018-04-25T09:38:46.650Z,100207.41
2018-04-25T09:41:23.440Z,100198.84
2018-04-25T09:43:50.133Z,100200.61
2018-04-25T09:46:16.817Z,100198.10
2018-04-25T09:48:43.532Z,100189.19
2018-04-25T09:51:15.808Z,100194.73
2018-04-25T09:53:42.507Z,100195.60
2018-04-25T09:56:09.161Z,100192.59
2018-04-25T09:58:35.758Z,100186.34
2018-04-25T10:01:09.449Z,100187.20
2018-04-25T10:03:42.241Z,100197.61
2018-04-25T10:06:08.837Z,100184.78
2018-04-25T10:08:35.482Z,100187.61
2018-04-25T10:11:03.286Z,100191.84
2018-04-25T10:13:29.898Z,100174.95
2018-04-25T10:15:56.544Z,100174.26
2018-04-25T10:18:23.266Z,100173.80
2018-04-25T10:20:53.678Z,100174.69
2018-04-25T10:23:20.356Z,100176.28
2018-04-25T10:25:47.010Z,100168.41
2018-04-25T10:28:13.645Z,100165.84
2018-04-25T10:30:45.841Z,100174.97
2018-04-25T10:33:12.551Z,100172.34
2018-04-25T10:35:39.122Z,100163.38
2018-04-25T10:38:05.795Z,100171.83
2018-04-25T10:40:33.578Z,100164.81
2018-04-25T10:43:00.104Z,100164.73
2018-04-25T10:45:26.811Z,100150.95
2018-04-25T10:47:53.526Z,100152.61
2018-04-25T10:50:30.506Z,100155.27
2018-04-25T10:52:57.174Z,100156.11
2018-04-25T10:55:23.874Z,100145.80
2018-04-25T10:57:50.505Z,100148.16
2018-04-25T11:00:30.110Z,100153.44
2018-04-25T11:02:57.089Z,100157.52
2018-04-25T11:05:23.794Z,100151.65
2018-04-25T11:07:56.918Z,100142.30
2018-04-25T11:10:28.494Z,100139.98
2018-04-25T11:12:55.174Z,100139.97
2018-04-25T11:15:21.882Z,100144.20
2018-04-25T11:17:48.522Z,100138.38
2018-04-25T11:20:19.291Z,100147.16
2018-04-25T11:22:45.846Z,100136.55
2018-04-25T11:25:12.336Z,100131.86
2018-04-25T11:27:39.049Z,100139.84
2018-04-25T11:30:05.825Z,100125.25
2018-04-25T11:32:33.382Z,100128.02
2018-04-25T11:35:00.085Z,100132.53
2018-04-25T11:37:26.758Z,100133.06
2018-04-25T11:39:57.058Z,100136.95
2018-04-25T11:42:23.730Z,100136.03
2018-04-25T11:44:50.501Z,100129.98
2018-04-25T11:47:17.175Z,100130.42
2018-04-25T11:49:54.193Z,100129.16
2018-04-25T11:52:20.876Z,100119.14
2018-04-25T11:54:48.034Z,100120.55
2018-04-25T11:57:14.711Z,100119.98
2018-04-25T11:59:46.602Z,100120.05
2018-04-25T12:02:13.129Z,100111.87
2018-04-25T12:04:39.774Z,100118.31
2018-04-25T12:07:06.397Z,100118.48
2018-04-25T12:09:33.666Z,100110.16
2018-04-25T12:12:00.312Z,100109.36
2018-04-25T12:14:27.025Z,100101.91
2018-04-25T12:16:53.690Z,100107.80
2018-04-25T12:19:24.338Z,100104.61
2018-04-25T12:21:50.908Z,100096.68
2018-04-25T12:24:17.638Z,100094.19
2018-04-25T12:26:44.241Z,100091.16
2018-04-25T12:29:10.979Z,100084.16
2018-04-25T12:31:37.636Z,100081.98
2018-04-25T12:34:04.314Z,100087.82
2018-04-25T12:36:31.041Z,100078.73
2018-04-25T12:38:57.690Z,100083.09
2018-04-25T12:41:28.338Z,100069.22
2018-04-25T12:43:55.075Z,100064.05
2018-04-25T12:46:21.678Z,100061.42
2018-04-25T12:48:48.231Z,100064.77
2018-04-25T12:51:19.605Z,100064.36
2018-04-25T12:53:46.281Z,100066.63
2018-04-25T12:56:12.906Z,100070.53
2018-04-25T12:58:39.520Z,100044.94
2018-04-25T13:01:13.212Z,100056.55
2018-04-25T13:03:39.978Z,100055.86
2018-04-25T13:06:06.522Z,100056.91
2018-04-25T13:08:33.227Z,100053.50
2018-04-25T13:11:10.464Z,100057.58
2018-04-25T13:13:37.278Z,100058.05
2018-04-25T13:16:04.011Z,100063.05
2018-04-25T13:18:30.671Z,100052.90
2018-04-25T13:21:07.303Z,100048.53
2018-04-25T13:23:34.008Z,100051.31
2018-04-25T13:26:00.745Z,100049.70
2018-04-25T13:28:27.425Z,100056.11
2018-04-25T13:30:57.621Z,100055.39
2018-04-25T13:33:24.330Z,100057.13
2018-04-25T13:35:50.935Z,100064.41
2018-04-25T13:38:17.563Z,100064.73
2018-04-25T13:40:47.586Z,100062.20
2018-04-25T13:43:14.176Z,100057.61
2018-04-25T13:45:40.785Z,100054.70
2018-04-25T13:48:07.268Z,100051.73
2018-04-25T13:50:48.229Z,100054.97
2018-04-25T13:53:14.925Z,100061.16
2018-04-25T13:55:41.481Z,100053.52
2018-04-25T13:58:08.113Z,100053.22
2018-04-25T14:00:41.391Z,100055.44
2018-04-25T14:03:08.015Z,100043.66
2018-04-25T14:05:34.771Z,100036.33
2018-04-25T14:08:01.351Z,100039.44
2018-04-25T14:10:35.561Z,100035.66
2018-04-25T14:13:02.248Z,100036.53
2018-04-25T14:15:28.799Z,100044.89
2018-04-25T14:17:55.449Z,100039.63
2018-04-25T14:20:26.962Z,100044.71
2018-04-25T14:22:53.647Z,100047.63
2018-04-25T14:25:20.248Z,100035.40
2018-04-25T14:27:46.908Z,100040.36
2018-04-25T14:30:18.899Z,100043.60
2018-04-25T14:32:45.517Z,100058.86
2018-04-25T14:35:13.199Z,100047.27
2018-04-25T14:37:39.879Z,100050.80
2018-04-25T14:40:19.364Z,100047.41
2018-04-25T14:42:45.920Z,100052.42
2018-04-25T14:45:12.578Z,100049.27
2018-04-25T14:47:39.313Z,100044.10
2018-04-25T14:50:05.829Z,100040.23
2018-04-25T14:52:32.474Z,100047.77
2018-04-25T14:54:59.217Z,100048.11
2018-04-25T14:57:25.843Z,100043.09
2018-04-25T15:00:05.463Z,100034.08
2018-04-25T15:02:32.235Z,100042.97
2018-04-25T15:04:58.914Z,100045.23
2018-04-25T15:07:25.718Z,100033.69
2018-04-25T15:10:02.675Z,100041.42
2018-04-25T15:12:29.382Z,100034.60
2018-04-25T15:14:56.029Z,100040.47
2018-04-25T15:17:22.753Z,100041.64
2018-04-25T15:19:50.541Z,100035.45
2018-04-25T15:22:17.104Z,100045.52
2018-04-25T15:24:43.690Z,100034.94
2018-04-25T15:27:10.414Z,100040.02
2018-04-25T15:29:43.477Z,100035.30
2018-04-25T15:32:10.109Z,100032.21
2018-04-25T15:34:36.779Z,100043.00
2018-04-25T15:37:03.354Z,100040.73
2018-04-25T15:39:33.503Z,100042.23
2018-04-25T15:42:00.212Z,100034.92
2018-04-25T15:44:26.862Z,100033.95
2018-04-25T15:46:53.569Z,100032.75
2018-04-25T15:49:21.463Z,100026.69
2018-04-25T15:51:47.970Z,100028.41
2018-04-25T15:54:14.623Z,100036.50
2018-04-25T15:56:41.232Z,100026.27
2018-04-25T15:59:08.867Z,100025.97
2018-04-25T16:01:35.524Z,100026.77
2018-04-25T16:04:02.251Z,100025.69
2018-04-25T16:06:29.412Z,100030.19
2018-04-25T16:09:01.207Z,100034.83
2018-04-25T16:11:27.767Z,100041.33
2018-04-25T16:13:54.434Z,100048.16
2018-04-25T16:16:21.106Z,100056.56
2018-04-25T16:18:53.545Z,100062.49
2018-04-25T16:21:20.193Z,100061.63
2018-04-25T16:23:47.426Z,100063.86
2018-04-25T16:26:14.135Z,100068.76
2018-04-25T16:28:43.733Z,100078.09
2018-04-25T16:31:10.330Z,100074.03
2018-04-25T16:33:37.045Z,100074.48
2018-04-25T16:36:03.606Z,100076.31
2018-04-25T16:38:30.213Z,100075.14
2018-04-25T16:40:56.755Z,100074.27
2018-04-25T16:43:23.409Z,100072.13
2018-04-25T16:45:50.185Z,100068.17
2018-04-25T16:48:16.775Z,100070.37
2018-04-25T16:50:51.039Z,100071.83
2018-04-25T16:53:17.614Z,100070.27
2018-04-25T16:55:44.265Z,100067.37
2018-04-25T16:58:10.829Z,100074.37
2018-04-25T17:00:42.098Z,100071.13
2018-04-25T17:03:08.689Z,100074.16
2018-04-25T17:05:35.354Z,100079.38
2018-04-25T17:08:02.011Z,100081.92
2018-04-25T17:10:42.441Z,100080.83
2018-04-25T17:13:09.005Z,100088.52
2018-04-25T17:15:35.731Z,100092.67
2018-04-25T17:18:02.319Z,100083.66
2018-04-25T17:20:36.714Z,100092.63
2018-04-25T17:23:03.456Z,100094.68
2018-04-25T17:25:30.061Z,100095.49
2018-04-25T17:27:56.668Z,100093.73
2018-04-25T17:30:27.279Z,100092.83
2018-04-25T17:32:53.886Z,100095.11
2018-04-25T17:35:20.605Z,100104.48
2018-04-25T17:37:47.323Z,100103.14
2018-04-25T17:40:17.131Z,100108.24
2018-04-25T17:42:43.743Z,100106.66
2018-04-25T17:45:10.408Z,100103.53
2018-04-25T17:47:37.151Z,100112.79
2018-04-25T17:50:11.164Z,100108.78
2018-04-25T17:52:37.761Z,100111.61
2018-04-25T17:55:04.471Z,100111.48
2018-04-25T17:57:31.179Z,100110.02
2018-04-25T18:00:04.435Z,100111.31
2018-04-25T18:02:31.149Z,100108.88
2018-04-25T18:04:57.897Z,100115.37
2018-04-25T18:07:24.458Z,100115.62
2018-04-25T18:09:54.784Z,100120.11
2018-04-25T18:12:21.487Z,100124.59
2018-04-25T18:14:48.179Z,100125.58
2018-04-25T18:17:15.327Z,100127.24
2018-04-25T18:19:43.012Z,100122.84
2018-04-25T18:22:09.675Z,100128.87
2018-04-25T18:24:36.434Z,100130.18
2018-04-25T18:27:03.070Z,100135.95
2018-04-25T18:29:30.853Z,100134.30
2018-04-25T18:31:57.582Z,100138.20
2018-04-25T18:34:24.331Z,100137.02
2018-04-25T18:36:50.948Z,100140.67
2018-04-25T18:39:19.069Z,100142.56
2018-04-25T18:41:45.781Z,100145.02
2018-04-25T18:44:12.529Z,100145.83
2018-04-25T18:46:39.221Z,100149.59
2018-04-25T18:49:09.499Z,100156.42
2018-04-25T18:51:36.492Z,100157.72
2018-04-25T18:54:03.001Z,100162.19
2018-04-25T18:56:29.760Z,100157.03
2018-04-25T18:59:00.576Z,100161.66
2018-04-25T19:01:27.300Z,100164.19
2018-04-25T19:03:55.234Z,100159.78
2018-04-25T19:06:22.894Z,100159.47
2018-04-25T19:08:54.112Z,100165.18
2018-04-25T19:11:20.988Z,100170.06
2018-04-25T19:13:47.685Z,100167.14
2018-04-25T19:16:14.557Z,100162.42
2018-04-25T19:18:42.327Z,100164.16
2018-04-25T19:21:09.049Z,100158.23
2018-04-25T19:23:36.182Z,100164.05
2018-04-25T19:26:04.039Z,100159.13
2018-04-25T19:28:34.270Z,100161.76
2018-04-25T19:31:00.972Z,100155.31
2018-04-25T19:33:27.688Z,100152.33
2018-04-25T19:35:54.482Z,100158.50
2018-04-25T19:38:24.311Z,100153.34
2018-04-25T19:40:51.169Z,100148.97
2018-04-25T19:43:17.959Z,100147.55
2018-04-25T19:45:44.600Z,100148.92
2018-04-25T19:48:11.322Z,100147.27
2018-04-25T19:50:38.048Z,100151.27
2018-04-25T19:53:04.864Z,100144.95
2018-04-25T19:55:31.569Z,100145.86
2018-04-25T19:57:58.293Z,100148.59
2018-04-25T20:00:29.860Z,100145.22
2018-04-25T20:02:56.521Z,100140.41
2018-04-25T20:05:23.251Z,100145.83
2018-04-25T20:07:49.830Z,100142.05
2018-04-25T20:10:16.613Z,100136.37
2018-04-25T20:12:43.173Z,100141.44
2018-04-25T20:15:09.798Z,100138.15
2018-04-25T20:17:37.288Z,100139.83
2018-04-25T20:20:08.262Z,100141.77
2018-04-25T20:22:34.859Z,100141.30
2018-04-25T20:25:01.634Z,100144.36
2018-04-25T20:27:28.262Z,100139.48
2018-04-25T20:29:55.010Z,100137.19
2018-04-25T20:32:21.747Z,100137.83
2018-04-25T20:34:48.459Z,100134.52
2018-04-25T20:37:15.100Z,100139.24
2018-04-25T20:39:42.218Z,100133.34
2018-04-25T20:42:08.856Z,100134.69
2018-04-25T20:44:35.456Z,100134.75
2018-04-25T20:47:02.118Z,100139.50
2018-04-25T20:49:34.942Z,100140.70
2018-04-25T20:52:01.511Z,100143.02
2018-04-25T20:54:28.125Z,100148.15
2018-04-25T20:56:54.755Z,100140.43
2018-04-25T20:59:21.678Z,100142.80
2018-04-25T21:01:48.353Z,100135.82
2018-04-25T21:04:15.150Z,100136.81
2018-04-25T21:06:41.706Z,100136.72
2018-04-25T21:09:18.566Z,100137.66
2018-04-25T21:11:45.058Z,100137.27
2018-04-25T21:14:11.696Z,100141.17
2018-04-25T21:16:38.429Z,100145.60
2018-04-25T21:19:05.096Z,100140.09
2018-04-25T21:21:31.894Z,100144.22
2018-04-25T21:23:58.622Z,100147.51
2018-04-25T21:26:25.201Z,100153.31
2018-04-25T21:28:52.972Z,100147.86
2018-04-25T21:31:19.668Z,100154.59
2018-04-25T21:33:46.295Z,100147.16
2018-04-25T21:36:12.982Z,100146.88
2018-04-25T21:38:40.663Z,100147.69
2018-04-25T21:41:07.205Z,100146.30
2018-04-25T21:43:33.835Z,100140.71
2018-04-25T21:46:00.445Z,100138.53
2018-04-25T21:48:43.974Z,100137.41
2018-04-25T21:51:10.712Z,100133.21
2018-04-25T21:53:37.238Z,100139.71
2018-04-25T21:56:03.890Z,100144.30
2018-04-25T21:58:44.765Z,100135.81
2018-04-25T22:01:11.293Z,100130.16
2018-04-25T22:03:38.726Z,100128.00
2018-04-25T22:06:05.386Z,100132.56
2018-04-25T22:08:32.000Z,100133.77
2018-04-25T22:10:58.591Z,100129.11
2018-04-25T22:13:25.253Z,100130.38
2018-04-25T22:15:51.976Z,100134.31
2018-04-25T22:18:24.612Z,100137.70
2018-04-25T22:20:51.178Z,100135.51
2018-04-25T22:23:17.850Z,100120.47
2018-04-25T22:25:44.952Z,100126.61
2018-04-25T22:28:12.665Z,100124.86
2018-04-25T22:30:39.314Z,100125.74
2018-04-25T22:33:05.940Z,100123.71
2018-04-25T22:35:32.634Z,100119.69
2018-04-25T22:38:02.511Z,100118.22
2018-04-25T22:40:29.511Z,100117.86
2018-04-25T22:42:56.244Z,100110.84
2018-04-25T22:45:22.879Z,100114.29
2018-04-25T22:47:49.551Z,100107.64
2018-04-25T22:50:16.215Z,100103.03
2018-04-25T22:52:43.322Z,100102.81
2018-04-25T22:55:09.903Z,100104.02
2018-04-25T22:57:36.559Z,100098.91
2018-04-25T23:00:03.208Z,100105.59
2018-04-25T23:02:29.727Z,100102.57
2018-04-25T23:04:56.369Z,100093.19
2018-04-25T23:07:23.039Z,100093.63
2018-04-25T23:09:49.732Z,100093.34
2018-04-25T23:12:16.226Z,100098.89
2018-04-25T23:14:42.909Z,100091.91
2018-04-25T23:17:09.618Z,100101.20
2018-04-25T23:19:42.610Z,100102.45
2018-04-25T23:22:09.216Z,100088.24
2018-04-25T23:24:35.720Z,100095.28
2018-04-25T23:27:02.293Z,100085.59
2018-04-25T23:29:32.202Z,100086.29
2018-04-25T23:31:58.851Z,100082.07
2018-04-25T23:34:25.482Z,100084.37
2018-04-25T23:36:52.096Z,100080.28
2018-04-25T23:39:22.037Z,100082.09
2018-04-25T23:41:48.732Z,100083.56
2018-04-25T23:44:15.243Z,100084.92
2018-04-25T23:46:41.908Z,100077.80
2018-04-25T23:49:13.926Z,100079.26
2018-04-25T23:51:40.578Z,100079.08
2018-04-25T23:54:07.209Z,100076.86
2018-04-25T23:56:33.865Z,100078.98
2018-04-25T23:59:00.497Z,100074.81
